Relevés horaires Bierset (Belgique)


Relevés horaires à Bierset - Vendredi 14 Déc. 2018
Heure UTC1 Température [°C] Vent [km/h] Hum. [%] Pres.4 [hPa] Visi. [Km] Nébu. [octa] Préc.5 [mm] Cond.
2m. Res. Ros. Dir.2 Vit. Moy. Raf.3
23:00 -0.2 -0.2 -7.0 SE 3.7 5.6 7.4 60 1025.4(-0.1/3h) 35 7/8 -- --
22:00 -0.2 -0.2 -6.8 ESE 3.7 5.6 9.3 61 1025.3(-0.2/3h) 35 7/8 -- --
21:00 -0.1 -0.1 -7.1 ESE 3.7 5.6 7.4 59 1025.3(0.2/3h) 50 7/8 -- --
20:00 -0.1 -0.1 -7.0 E 1.9 3.7 7.4 60 1025.6(0.7/3h) 50 7/8 -- --
19:00 0.1 0.1 -6.8 SE 3.7 5.6 7.4 60 1025.6(1.2/3h) 50 7/8 -- --
18:00 0.1 0.1 -6.9 E 3.7 9.3 22.2 59 1025(1.3/3h) 50 7/8 0/12h
--
17:00 0.1 0.1 -6.8 ESE 3.7 5.6 7.4 60 1024.9(1.9/3h) 40 7/8 -- --
16:00 0.3 -1.5 -7.2 E 5.6 5.6 9.3 57 1024.3(1.7/3h) 40 7/8 -- --
15:00 0.5 0.5 -6.9 E 3.7 9.3 22.2 57 1023.7(1.1/3h) 40 7/8 -- --
14:00 0.8 -0.9 -7.1 ESE 5.6 7.4 22.2 55 1022.8(0.0/3h) 40 7/8 -- --
13:00 1.4 -0.9 -7.2 E 7.4 9.3 13.0 53 1022.5(-0.6/3h) 30 7/8 -- --
12:00 1.2 -1.1 -6.2 ESE 7.4 7.4 16.7 58 1022.5(-0.4/3h) 30 7/8 0/6h
--
11:00 0.4 -2.1 -6.3 E 7.4 7.4 11.1 61 1022.9(0.4/3h) 30 7/8 -- --
10:00 0.2 -1.6 -5.4 E 5.6 5.6 11.1 66 1023.2(1.5/3h) 30 8/8 -- --
09:00 -0.1 -2 -5.5 ENE 5.6 7.4 16.7 67 1023(2.0/3h) 30 7/8 -- --
08:00 -0.4 -2.3 -5.3 ENE 5.6 5.6 16.7 69 1022.6(1.7/3h) 30 7/8 -- --
07:00 -0.4 -2.3 -5.5 E 5.6 7.4 11.1 68 1021.7(0.8/3h) 30 7/8 -- --
06:00 -0.4 -2.3 -6.0 E 5.6 7.4 22.2 66 1021(-0.1/3h) 30 7/8 0/12h
--
05:00 -0.6 -3.2 -6.1 E 7.4 7.4 22.2 66 1020.9(-0.2/3h) 30 7/8 -- --
04:00 -1.2 -3.2 -5.4 NE 5.6 5.6 11.1 73 1020.9(0.1/3h) 30 7/8 -- --
03:00 -1.9 -4 -5.4 ENE 5.6 5.6 18.5 77 1021.1(0.1/3h) 30 7/8 -- --
02:00 -2.1 -2.1 -6.2 ENE 3.7 5.6 16.7 73 1021.2(0.2/3h) 30 7/8 -- --
01:00 -1.7 -1.7 -6.2 E 3.7 5.6 18.5 71 1021.1(0.1/3h) 30 4/8 -- --
00:00 -1.1 -3.1 -6.3 E 5.6 7.4 18.5 68 1020.9(0.2/3h) 30 7/8 0/6h
0/24h
--

1 Coordinated Universal Time. Actuellement il est 10:00 locale et 08:00 UTC.

2 Le vent souffle depuis la direction indiquée vers la direction oposée.

3 Les rafales max. sont disponible 40 min après l'heure du relevé.

4 Pour les stations d'altitude (plus de 600m) le géopotentiel du niveau le plus proche de la pression obligatoire est indiqué.

5 Les stations disposant d'un diffuseur peuvent indiquer "trace". Cela signifie que des précipitations ont touchés le sol mais que la quantité est inférieure à 0.1 mm.

Récapitulatif de la journée
Température [°C] Vent [km/h] Ensoleillement4 [h] Precipitations totale5 [mm] Pression [Hpa]
Min1 Max.2 Moy.3 Max. Min Max.
-3.5 1.6 6.6 22.2 0 h 0 min 0 1020.9 1025.6

1 Température minimale relevée entre 18:00 UTC la veille et 18:00 UTC le jour donné.

2 Température maximale relevée entre 06:00 UTC le jour donné et 06:00 UTC le lendemain.

3 Vent moyen de la journée basé sur les relevés horaires.

4 Ensoleillement en heures relevé entre 06:00 UTC la veille et 06:00 UTC le jour donné.

5 Précipitations totales tombées entre 06:00 UTC la jour donné et 06:00 UTC le lendemain.

Graphiques horaires